sensor_id;sensor_type;location;lat;lon;timestamp;pressure;altitude;pressure_sealevel;temperature;humidity
4981;BME280;2507;50.392;7.482;2022-09-06T00:00:06;100809.38;;;20.49;62.77
4981;BME280;2507;50.392;7.482;2022-09-06T00:02:32;100819.56;;;20.38;62.93
4981;BME280;2507;50.392;7.482;2022-09-06T00:04:58;100826.53;;;20.22;62.95
4981;BME280;2507;50.392;7.482;2022-09-06T00:07:24;100824.88;;;20.29;62.80
4981;BME280;2507;50.392;7.482;2022-09-06T00:09:49;100819.06;;;20.34;62.73
4981;BME280;2507;50.392;7.482;2022-09-06T00:12:14;100801.56;;;20.40;62.64
4981;BME280;2507;50.392;7.482;2022-09-06T00:14:40;100797.06;;;20.48;62.60
4981;BME280;2507;50.392;7.482;2022-09-06T00:17:05;100794.72;;;20.53;62.80
4981;BME280;2507;50.392;7.482;2022-09-06T00:19:30;100812.59;;;20.53;63.35
4981;BME280;2507;50.392;7.482;2022-09-06T00:21:55;100805.22;;;20.63;62.57
4981;BME280;2507;50.392;7.482;2022-09-06T00:24:21;100807.06;;;20.62;62.26
4981;BME280;2507;50.392;7.482;2022-09-06T00:26:46;100825.72;;;20.62;62.55
4981;BME280;2507;50.392;7.482;2022-09-06T00:29:11;100839.38;;;20.75;62.08
4981;BME280;2507;50.392;7.482;2022-09-06T00:31:36;100867.91;;;20.75;61.83
4981;BME280;2507;50.392;7.482;2022-09-06T00:34:02;100868.41;;;20.70;61.22
4981;BME280;2507;50.392;7.482;2022-09-06T00:36:27;100875.56;;;20.94;60.32
4981;BME280;2507;50.392;7.482;2022-09-06T00:38:52;100881.94;;;21.01;59.46
4981;BME280;2507;50.392;7.482;2022-09-06T00:41:18;100856.53;;;21.21;57.97
4981;BME280;2507;50.392;7.482;2022-09-06T00:43:44;100850.66;;;21.33;57.68
4981;BME280;2507;50.392;7.482;2022-09-06T00:46:18;100848.88;;;21.18;59.72
4981;BME280;2507;50.392;7.482;2022-09-06T00:48:46;100853.06;;;21.04;60.58
4981;BME280;2507;50.392;7.482;2022-09-06T00:51:14;100859.34;;;21.27;59.94
4981;BME280;2507;50.392;7.482;2022-09-06T00:53:40;100858.31;;;21.37;59.24
4981;BME280;2507;50.392;7.482;2022-09-06T00:56:06;100862.34;;;21.33;59.32
4981;BME280;2507;50.392;7.482;2022-09-06T00:58:31;100863.88;;;21.11;60.23
4981;BME280;2507;50.392;7.482;2022-09-06T01:00:57;100872.41;;;20.66;61.88
4981;BME280;2507;50.392;7.482;2022-09-06T01:03:23;100871.00;;;20.14;63.83
4981;BME280;2507;50.392;7.482;2022-09-06T01:11:52;100878.25;;;20.62;60.70
4981;BME280;2507;50.392;7.482;2022-09-06T01:14:39;100885.91;;;20.73;61.04
4981;BME280;2507;50.392;7.482;2022-09-06T01:20:31;100900.44;;;21.10;59.30
4981;BME280;2507;50.392;7.482;2022-09-06T01:23:35;100890.22;;;21.38;57.47
4981;BME280;2507;50.392;7.482;2022-09-06T01:28:46;100909.53;;;21.48;58.06
4981;BME280;2507;50.392;7.482;2022-09-06T01:39:01;100911.91;;;21.43;58.54
4981;BME280;2507;50.392;7.482;2022-09-06T01:41:27;100915.19;;;21.61;57.87
4981;BME280;2507;50.392;7.482;2022-09-06T01:43:54;100931.78;;;21.33;58.81
4981;BME280;2507;50.392;7.482;2022-09-06T01:54:40;100911.25;;;20.93;61.81
4981;BME280;2507;50.392;7.482;2022-09-06T02:00:06;100899.75;;;21.33;61.03
4981;BME280;2507;50.392;7.482;2022-09-06T02:05:22;100875.81;;;21.94;59.12
4981;BME280;2507;50.392;7.482;2022-09-06T02:07:55;100873.84;;;22.18;58.50
4981;BME280;2507;50.392;7.482;2022-09-06T02:10:29;100867.56;;;22.34;58.22
4981;BME280;2507;50.392;7.482;2022-09-06T02:12:58;100867.00;;;22.39;58.27
4981;BME280;2507;50.392;7.482;2022-09-06T02:15:28;100856.88;;;22.57;56.82
4981;BME280;2507;50.392;7.482;2022-09-06T02:18:02;100848.03;;;22.56;56.66
4981;BME280;2507;50.392;7.482;2022-09-06T02:20:31;100840.41;;;22.45;59.49
4981;BME280;2507;50.392;7.482;2022-09-06T02:23:00;100837.41;;;22.40;60.27
4981;BME280;2507;50.392;7.482;2022-09-06T02:25:33;100837.78;;;22.37;61.96
4981;BME280;2507;50.392;7.482;2022-09-06T02:27:59;100839.38;;;22.46;61.83
4981;BME280;2507;50.392;7.482;2022-09-06T02:30:25;100825.72;;;22.41;62.42
4981;BME280;2507;50.392;7.482;2022-09-06T02:32:59;100822.31;;;22.47;61.95
4981;BME280;2507;50.392;7.482;2022-09-06T02:35:26;100811.31;;;22.42;62.15
4981;BME280;2507;50.392;7.482;2022-09-06T02:37:52;100811.41;;;22.34;62.83
4981;BME280;2507;50.392;7.482;2022-09-06T02:40:18;100814.66;;;22.21;63.39
4981;BME280;2507;50.392;7.482;2022-09-06T02:42:44;100806.31;;;22.16;63.83
4981;BME280;2507;50.392;7.482;2022-09-06T02:45:09;100807.22;;;22.31;63.50
4981;BME280;2507;50.392;7.482;2022-09-06T02:47:34;100798.66;;;22.13;63.99
4981;BME280;2507;50.392;7.482;2022-09-06T02:50:00;100802.13;;;21.99;65.05
4981;BME280;2507;50.392;7.482;2022-09-06T02:52:25;100796.16;;;21.89;67.30
4981;BME280;2507;50.392;7.482;2022-09-06T02:54:51;100805.25;;;21.33;70.54
4981;BME280;2507;50.392;7.482;2022-09-06T02:57:16;100809.03;;;21.00;71.93
4981;BME280;2507;50.392;7.482;2022-09-06T02:59:41;100817.38;;;20.73;73.89
4981;BME280;2507;50.392;7.482;2022-09-06T03:02:07;100821.06;;;20.64;74.31
4981;BME280;2507;50.392;7.482;2022-09-06T03:04:32;100818.53;;;20.79;73.72
4981;BME280;2507;50.392;7.482;2022-09-06T03:06:57;100813.38;;;20.69;73.19
4981;BME280;2507;50.392;7.482;2022-09-06T03:09:22;100813.06;;;20.72;73.08
4981;BME280;2507;50.392;7.482;2022-09-06T03:11:49;100804.53;;;20.77;72.30
4981;BME280;2507;50.392;7.482;2022-09-06T03:14:14;100823.56;;;20.66;72.33
4981;BME280;2507;50.392;7.482;2022-09-06T03:16:41;100826.41;;;20.56;72.46
4981;BME280;2507;50.392;7.482;2022-09-06T03:19:06;100820.41;;;20.38;72.66
4981;BME280;2507;50.392;7.482;2022-09-06T03:21:31;100815.38;;;20.35;73.27
4981;BME280;2507;50.392;7.482;2022-09-06T03:23:56;100808.06;;;20.45;72.82
4981;BME280;2507;50.392;7.482;2022-09-06T03:26:23;100808.72;;;20.63;71.54
4981;BME280;2507;50.392;7.482;2022-09-06T03:28:48;100814.06;;;20.55;71.23
4981;BME280;2507;50.392;7.482;2022-09-06T03:31:14;100806.41;;;20.44;71.87
4981;BME280;2507;50.392;7.482;2022-09-06T03:33:39;100812.38;;;20.62;71.04
4981;BME280;2507;50.392;7.482;2022-09-06T03:36:05;100808.41;;;20.58;71.04
4981;BME280;2507;50.392;7.482;2022-09-06T03:38:30;100801.56;;;20.48;71.09
4981;BME280;2507;50.392;7.482;2022-09-06T03:40:55;100792.88;;;20.46;71.42
4981;BME280;2507;50.392;7.482;2022-09-06T03:43:22;100791.91;;;20.39;71.59
4981;BME280;2507;50.392;7.482;2022-09-06T03:45:52;100803.41;;;20.39;71.69
4981;BME280;2507;50.392;7.482;2022-09-06T03:48:20;100813.06;;;20.40;71.47
4981;BME280;2507;50.392;7.482;2022-09-06T03:50:47;100806.91;;;20.31;71.72
4981;BME280;2507;50.392;7.482;2022-09-06T03:53:14;100804.41;;;20.30;71.96
4981;BME280;2507;50.392;7.482;2022-09-06T03:55:43;100796.75;;;20.27;71.78
4981;BME280;2507;50.392;7.482;2022-09-06T03:58:08;100795.56;;;20.21;71.86
4981;BME280;2507;50.392;7.482;2022-09-06T04:00:34;100793.69;;;20.14;72.17
4981;BME280;2507;50.392;7.482;2022-09-06T04:02:59;100789.75;;;20.18;72.56
4981;BME280;2507;50.392;7.482;2022-09-06T04:05:24;100792.00;;;20.13;72.32
4981;BME280;2507;50.392;7.482;2022-09-06T04:07:50;100794.19;;;20.01;73.04
4981;BME280;2507;50.392;7.482;2022-09-06T04:10:16;100786.66;;;19.97;73.02
4981;BME280;2507;50.392;7.482;2022-09-06T04:12:41;100783.00;;;19.90;73.05
4981;BME280;2507;50.392;7.482;2022-09-06T04:15:07;100773.34;;;19.89;73.21
4981;BME280;2507;50.392;7.482;2022-09-06T04:17:32;100782.47;;;19.78;73.69
4981;BME280;2507;50.392;7.482;2022-09-06T04:19:57;100782.00;;;19.83;72.31
4981;BME280;2507;50.392;7.482;2022-09-06T04:22:23;100778.41;;;19.58;74.00
4981;BME280;2507;50.392;7.482;2022-09-06T04:24:48;100785.25;;;19.53;73.83
4981;BME280;2507;50.392;7.482;2022-09-06T04:27:13;100786.63;;;19.31;74.25
4981;BME280;2507;50.392;7.482;2022-09-06T04:29:38;100789.56;;;19.20;75.85
4981;BME280;2507;50.392;7.482;2022-09-06T04:32:04;100787.25;;;19.25;75.54
4981;BME280;2507;50.392;7.482;2022-09-06T04:34:29;100785.41;;;19.17;76.01
4981;BME280;2507;50.392;7.482;2022-09-06T04:36:55;100784.38;;;19.18;76.16
4981;BME280;2507;50.392;7.482;2022-09-06T04:39:20;100790.38;;;19.12;76.40
4981;BME280;2507;50.392;7.482;2022-09-06T04:41:45;100789.13;;;18.99;77.48
4981;BME280;2507;50.392;7.482;2022-09-06T04:44:10;100792.28;;;19.02;77.42
4981;BME280;2507;50.392;7.482;2022-09-06T04:46:36;100787.13;;;18.75;77.55
4981;BME280;2507;50.392;7.482;2022-09-06T04:49:02;100791.34;;;18.86;76.94
4981;BME280;2507;50.392;7.482;2022-09-06T04:51:27;100794.16;;;19.10;75.64
4981;BME280;2507;50.392;7.482;2022-09-06T04:53:52;100796.47;;;19.05;75.14
4981;BME280;2507;50.392;7.482;2022-09-06T04:56:20;100799.41;;;18.94;75.98
4981;BME280;2507;50.392;7.482;2022-09-06T04:58:47;100800.44;;;19.01;75.38
4981;BME280;2507;50.392;7.482;2022-09-06T05:01:13;100803.41;;;18.98;75.36
4981;BME280;2507;50.392;7.482;2022-09-06T05:03:38;100802.06;;;18.94;75.49
4981;BME280;2507;50.392;7.482;2022-09-06T05:06:12;100802.41;;;18.99;75.44
4981;BME280;2507;50.392;7.482;2022-09-06T05:08:38;100799.56;;;18.67;78.06
4981;BME280;2507;50.392;7.482;2022-09-06T05:11:05;100809.97;;;18.60;79.13
4981;BME280;2507;50.392;7.482;2022-09-06T05:13:30;100817.47;;;18.65;81.36
4981;BME280;2507;50.392;7.482;2022-09-06T05:15:59;100811.66;;;19.38;82.47
4981;BME280;2507;50.392;7.482;2022-09-06T05:18:25;100812.41;;;20.30;77.00
4981;BME280;2507;50.392;7.482;2022-09-06T05:20:51;100815.66;;;21.59;73.84
4981;BME280;2507;50.392;7.482;2022-09-06T05:23:17;100816.91;;;22.78;66.66
4981;BME280;2507;50.392;7.482;2022-09-06T05:25:42;100814.59;;;23.77;61.62
4981;BME280;2507;50.392;7.482;2022-09-06T05:28:08;100816.19;;;24.70;57.71
4981;BME280;2507;50.392;7.482;2022-09-06T05:30:33;100823.47;;;25.72;53.74
4981;BME280;2507;50.392;7.482;2022-09-06T05:32:58;100818.50;;;25.76;53.51
4981;BME280;2507;50.392;7.482;2022-09-06T05:35:24;100812.03;;;26.37;52.09
4981;BME280;2507;50.392;7.482;2022-09-06T05:37:49;100817.63;;;27.07;49.35
4981;BME280;2507;50.392;7.482;2022-09-06T05:40:14;100811.59;;;27.82;47.29
4981;BME280;2507;50.392;7.482;2022-09-06T05:42:39;100815.03;;;28.09;46.73
4981;BME280;2507;50.392;7.482;2022-09-06T05:45:05;100810.50;;;28.34;45.95
4981;BME280;2507;50.392;7.482;2022-09-06T05:47:31;100818.19;;;28.31;45.17
4981;BME280;2507;50.392;7.482;2022-09-06T05:49:59;100814.34;;;27.76;45.96
4981;BME280;2507;50.392;7.482;2022-09-06T05:52:24;100822.59;;;27.81;46.60
4981;BME280;2507;50.392;7.482;2022-09-06T05:54:50;100814.19;;;28.40;45.33
4981;BME280;2507;50.392;7.482;2022-09-06T05:57:15;100825.03;;;28.64;45.09
4981;BME280;2507;50.392;7.482;2022-09-06T05:59:40;100834.94;;;29.56;43.25
4981;BME280;2507;50.392;7.482;2022-09-06T06:02:05;100828.03;;;30.37;41.29
4981;BME280;2507;50.392;7.482;2022-09-06T06:04:31;100838.88;;;30.90;40.74
4981;BME280;2507;50.392;7.482;2022-09-06T06:06:56;100826.63;;;31.73;37.97
4981;BME280;2507;50.392;7.482;2022-09-06T06:09:21;100827.88;;;32.39;37.02
4981;BME280;2507;50.392;7.482;2022-09-06T06:11:47;100830.72;;;32.77;36.75
4981;BME280;2507;50.392;7.482;2022-09-06T06:14:12;100834.00;;;33.12;35.70
4981;BME280;2507;50.392;7.482;2022-09-06T06:16:38;100840.09;;;33.19;35.51
4981;BME280;2507;50.392;7.482;2022-09-06T06:19:03;100843.91;;;33.78;34.81
4981;BME280;2507;50.392;7.482;2022-09-06T06:21:30;100844.22;;;33.81;34.52
4981;BME280;2507;50.392;7.482;2022-09-06T06:24:03;100841.19;;;33.56;34.75
4981;BME280;2507;50.392;7.482;2022-09-06T06:26:31;100842.06;;;33.83;34.40
4981;BME280;2507;50.392;7.482;2022-09-06T06:28:57;100845.91;;;34.09;34.22
4981;BME280;2507;50.392;7.482;2022-09-06T06:31:29;100848.06;;;34.34;34.06
4981;BME280;2507;50.392;7.482;2022-09-06T06:33:54;100851.06;;;34.32;34.30
4981;BME280;2507;50.392;7.482;2022-09-06T06:36:24;100857.88;;;34.08;34.50
4981;BME280;2507;50.392;7.482;2022-09-06T06:38:53;100857.34;;;34.59;33.53
4981;BME280;2507;50.392;7.482;2022-09-06T06:41:20;100853.63;;;34.17;33.84
4981;BME280;2507;50.392;7.482;2022-09-06T06:43:50;100851.44;;;33.92;34.84
4981;BME280;2507;50.392;7.482;2022-09-06T06:46:16;100854.22;;;34.24;33.75
4981;BME280;2507;50.392;7.482;2022-09-06T06:48:43;100855.19;;;34.35;34.26
4981;BME280;2507;50.392;7.482;2022-09-06T06:51:11;100853.88;;;34.69;33.33
4981;BME280;2507;50.392;7.482;2022-09-06T06:53:36;100852.78;;;34.70;33.63
4981;BME280;2507;50.392;7.482;2022-09-06T06:56:23;100855.53;;;34.43;34.00
4981;BME280;2507;50.392;7.482;2022-09-06T06:58:50;100845.97;;;34.72;33.44
4981;BME280;2507;50.392;7.482;2022-09-06T07:01:17;100844.59;;;35.48;32.46
4981;BME280;2507;50.392;7.482;2022-09-06T07:03:44;100844.66;;;36.50;31.05
4981;BME280;2507;50.392;7.482;2022-09-06T07:06:09;100838.06;;;36.61;31.03
4981;BME280;2507;50.392;7.482;2022-09-06T07:08:35;100839.38;;;37.34;29.49
4981;BME280;2507;50.392;7.482;2022-09-06T07:11:02;100831.75;;;37.90;29.30
4981;BME280;2507;50.392;7.482;2022-09-06T07:13:28;100832.53;;;37.96;28.86
4981;BME280;2507;50.392;7.482;2022-09-06T07:16:19;100833.84;;;37.44;29.23
4981;BME280;2507;50.392;7.482;2022-09-06T07:18:44;100832.22;;;37.43;29.76
4981;BME280;2507;50.392;7.482;2022-09-06T07:21:13;100837.72;;;37.38;29.36
4981;BME280;2507;50.392;7.482;2022-09-06T07:23:39;100830.56;;;37.47;29.48
4981;BME280;2507;50.392;7.482;2022-09-06T07:26:04;100829.88;;;36.36;30.66
4981;BME280;2507;50.392;7.482;2022-09-06T07:28:30;100828.56;;;35.15;32.39
4981;BME280;2507;50.392;7.482;2022-09-06T07:30:56;100830.41;;;34.41;33.98
4981;BME280;2507;50.392;7.482;2022-09-06T07:33:22;100825.34;;;34.23;34.34
4981;BME280;2507;50.392;7.482;2022-09-06T07:35:58;100826.06;;;33.27;35.69
4981;BME280;2507;50.392;7.482;2022-09-06T07:38:24;100824.03;;;33.56;35.47
4981;BME280;2507;50.392;7.482;2022-09-06T07:40:54;100828.50;;;32.90;35.94
4981;BME280;2507;50.392;7.482;2022-09-06T07:43:20;100818.16;;;33.26;36.14
4981;BME280;2507;50.392;7.482;2022-09-06T07:45:45;100818.84;;;32.83;36.37
4981;BME280;2507;50.392;7.482;2022-09-06T07:48:10;100820.50;;;32.06;37.63
4981;BME280;2507;50.392;7.482;2022-09-06T07:50:35;100823.97;;;33.34;34.78
4981;BME280;2507;50.392;7.482;2022-09-06T07:53:05;100830.41;;;34.41;33.46
4981;BME280;2507;50.392;7.482;2022-09-06T07:55:31;100822.22;;;35.10;32.70
4981;BME280;2507;50.392;7.482;2022-09-06T07:57:56;100822.03;;;35.21;32.23
4981;BME280;2507;50.392;7.482;2022-09-06T08:00:21;100818.09;;;34.65;33.11
4981;BME280;2507;50.392;7.482;2022-09-06T08:02:46;100820.41;;;33.72;34.77
4981;BME280;2507;50.392;7.482;2022-09-06T08:05:12;100816.53;;;31.97;37.64
4981;BME280;2507;50.392;7.482;2022-09-06T08:07:37;100813.44;;;32.05;37.26
4981;BME280;2507;50.392;7.482;2022-09-06T08:10:02;100816.72;;;32.07;37.92
4981;BME280;2507;50.392;7.482;2022-09-06T08:12:28;100816.00;;;32.73;35.41
4981;BME280;2507;50.392;7.482;2022-09-06T08:14:54;100814.19;;;33.55;34.25
4981;BME280;2507;50.392;7.482;2022-09-06T08:17:19;100825.75;;;33.88;33.95
4981;BME280;2507;50.392;7.482;2022-09-06T08:19:44;100822.59;;;33.75;35.20
4981;BME280;2507;50.392;7.482;2022-09-06T08:22:10;100819.72;;;33.60;34.24
4981;BME280;2507;50.392;7.482;2022-09-06T08:24:35;100829.28;;;33.24;35.36
4981;BME280;2507;50.392;7.482;2022-09-06T08:27:01;100833.31;;;33.00;35.41
4981;BME280;2507;50.392;7.482;2022-09-06T08:29:26;100834.31;;;32.33;37.01
4981;BME280;2507;50.392;7.482;2022-09-06T08:31:52;100822.03;;;32.02;36.44
4981;BME280;2507;50.392;7.482;2022-09-06T08:34:17;100820.56;;;31.32;35.44
4981;BME280;2507;50.392;7.482;2022-09-06T08:36:42;100817.97;;;30.79;36.36
4981;BME280;2507;50.392;7.482;2022-09-06T08:39:10;100809.44;;;30.29;37.29
4981;BME280;2507;50.392;7.482;2022-09-06T08:41:46;100811.22;;;30.05;37.60
4981;BME280;2507;50.392;7.482;2022-09-06T08:44:16;100807.28;;;29.54;38.34
4981;BME280;2507;50.392;7.482;2022-09-06T08:47:00;100796.84;;;29.21;39.39
4981;BME280;2507;50.392;7.482;2022-09-06T08:49:33;100798.03;;;29.07;40.01
4981;BME280;2507;50.392;7.482;2022-09-06T08:54:58;100787.72;;;28.97;39.67
4981;BME280;2507;50.392;7.482;2022-09-06T09:00:13;100783.38;;;28.72;39.94
4981;BME280;2507;50.392;7.482;2022-09-06T09:02:50;100780.72;;;28.41;40.72
4981;BME280;2507;50.392;7.482;2022-09-06T09:05:37;100777.50;;;28.57;40.25
4981;BME280;2507;50.392;7.482;2022-09-06T09:08:22;100779.94;;;28.65;40.10
4981;BME280;2507;50.392;7.482;2022-09-06T09:10:53;100773.16;;;28.49;40.25
4981;BME280;2507;50.392;7.482;2022-09-06T09:15:53;100779.00;;;28.53;40.18
4981;BME280;2507;50.392;7.482;2022-09-06T09:18:24;100779.59;;;28.55;40.82
4981;BME280;2507;50.392;7.482;2022-09-06T09:20:50;100771.66;;;28.60;40.11
4981;BME280;2507;50.392;7.482;2022-09-06T09:23:15;100767.03;;;28.67;40.32
4981;BME280;2507;50.392;7.482;2022-09-06T09:25:41;100764.34;;;28.85;39.78
4981;BME280;2507;50.392;7.482;2022-09-06T09:28:19;100756.22;;;28.67;39.62
4981;BME280;2507;50.392;7.482;2022-09-06T09:30:56;100762.72;;;28.59;40.91
4981;BME280;2507;50.392;7.482;2022-09-06T09:35:47;100751.34;;;28.75;40.00
4981;BME280;2507;50.392;7.482;2022-09-06T09:38:19;100753.75;;;28.65;40.16
4981;BME280;2507;50.392;7.482;2022-09-06T09:43:25;100740.53;;;28.75;40.39
4981;BME280;2507;50.392;7.482;2022-09-06T09:46:27;100745.81;;;28.88;39.84
4981;BME280;2507;50.392;7.482;2022-09-06T09:52:09;100739.75;;;29.29;39.38
4981;BME280;2507;50.392;7.482;2022-09-06T09:54:36;100736.44;;;29.45;39.34
4981;BME280;2507;50.392;7.482;2022-09-06T09:57:07;100730.19;;;29.45;39.70
4981;BME280;2507;50.392;7.482;2022-09-06T09:59:43;100721.50;;;29.72;39.13
4981;BME280;2507;50.392;7.482;2022-09-06T10:02:42;100730.56;;;29.48;39.46
4981;BME280;2507;50.392;7.482;2022-09-06T10:07:44;100727.50;;;29.27;40.38
4981;BME280;2507;50.392;7.482;2022-09-06T10:15:47;100719.34;;;29.92;38.58
4981;BME280;2507;50.392;7.482;2022-09-06T10:18:38;100720.19;;;29.45;39.12
4981;BME280;2507;50.392;7.482;2022-09-06T10:21:06;100706.25;;;29.30;39.55
4981;BME280;2507;50.392;7.482;2022-09-06T10:26:47;100715.53;;;29.64;39.18
4981;BME280;2507;50.392;7.482;2022-09-06T10:32:12;100706.41;;;30.06;39.12
4981;BME280;2507;50.392;7.482;2022-09-06T10:35:02;100702.84;;;29.94;38.55
4981;BME280;2507;50.392;7.482;2022-09-06T10:40:05;100696.22;;;30.54;37.91
4981;BME280;2507;50.392;7.482;2022-09-06T10:42:51;100704.22;;;30.61;37.92
4981;BME280;2507;50.392;7.482;2022-09-06T10:47:56;100699.28;;;30.92;36.34
4981;BME280;2507;50.392;7.482;2022-09-06T10:50:29;100690.25;;;31.15;36.46
4981;BME280;2507;50.392;7.482;2022-09-06T10:53:00;100695.59;;;30.98;36.16
4981;BME280;2507;50.392;7.482;2022-09-06T10:55:29;100691.84;;;30.76;36.43
4981;BME280;2507;50.392;7.482;2022-09-06T10:57:59;100685.03;;;30.85;36.43
4981;BME280;2507;50.392;7.482;2022-09-06T11:00:32;100681.75;;;30.83;36.66
4981;BME280;2507;50.392;7.482;2022-09-06T11:03:07;100676.34;;;31.11;36.28
4981;BME280;2507;50.392;7.482;2022-09-06T11:06:08;100680.03;;;31.45;35.25
4981;BME280;2507;50.392;7.482;2022-09-06T11:11:32;100676.38;;;31.68;34.90
4981;BME280;2507;50.392;7.482;2022-09-06T11:14:03;100674.50;;;31.85;35.27
4981;BME280;2507;50.392;7.482;2022-09-06T11:16:34;100665.84;;;31.88;34.90
4981;BME280;2507;50.392;7.482;2022-09-06T11:19:10;100671.59;;;32.03;34.92
4981;BME280;2507;50.392;7.482;2022-09-06T11:22:07;100659.16;;;32.07;34.81
4981;BME280;2507;50.392;7.482;2022-09-06T11:27:40;100662.59;;;32.19;34.20
4981;BME280;2507;50.392;7.482;2022-09-06T11:30:13;100665.16;;;32.42;33.97
4981;BME280;2507;50.392;7.482;2022-09-06T11:32:40;100660.19;;;32.39;33.88
4981;BME280;2507;50.392;7.482;2022-09-06T11:35:20;100654.72;;;32.72;33.82
4981;BME280;2507;50.392;7.482;2022-09-06T11:37:47;100654.44;;;32.74;33.62
4981;BME280;2507;50.392;7.482;2022-09-06T11:40:21;100646.41;;;32.62;33.59
4981;BME280;2507;50.392;7.482;2022-09-06T11:45:45;100643.75;;;32.29;34.13
4981;BME280;2507;50.392;7.482;2022-09-06T11:53:21;100630.69;;;32.31;34.21
4981;BME280;2507;50.392;7.482;2022-09-06T11:55:50;100630.59;;;32.59;33.06
4981;BME280;2507;50.392;7.482;2022-09-06T12:00:41;100622.00;;;32.67;32.68
4981;BME280;2507;50.392;7.482;2022-09-06T12:03:08;100614.03;;;32.61;33.32
4981;BME280;2507;50.392;7.482;2022-09-06T12:08:38;100604.81;;;32.83;32.89
4981;BME280;2507;50.392;7.482;2022-09-06T12:11:05;100598.16;;;32.74;33.37
4981;BME280;2507;50.392;7.482;2022-09-06T12:13:47;100598.47;;;32.78;32.68
4981;BME280;2507;50.392;7.482;2022-09-06T12:16:16;100596.81;;;32.77;33.26
4981;BME280;2507;50.392;7.482;2022-09-06T12:21:07;100594.09;;;32.98;33.23
4981;BME280;2507;50.392;7.482;2022-09-06T12:26:01;100581.91;;;33.01;32.51
4981;BME280;2507;50.392;7.482;2022-09-06T12:28:33;100578.56;;;32.94;32.65
4981;BME280;2507;50.392;7.482;2022-09-06T12:30:59;100567.69;;;32.72;32.57
4981;BME280;2507;50.392;7.482;2022-09-06T12:33:31;100564.50;;;32.80;32.52
4981;BME280;2507;50.392;7.482;2022-09-06T12:36:16;100558.63;;;32.88;32.67
4981;BME280;2507;50.392;7.482;2022-09-06T12:39:09;100558.44;;;32.73;32.72
4981;BME280;2507;50.392;7.482;2022-09-06T12:41:39;100544.84;;;32.73;32.03
4981;BME280;2507;50.392;7.482;2022-09-06T12:44:06;100541.97;;;32.85;32.24
4981;BME280;2507;50.392;7.482;2022-09-06T12:46:32;100547.16;;;32.86;31.71
4981;BME280;2507;50.392;7.482;2022-09-06T12:49:00;100551.91;;;33.23;31.62
4981;BME280;2507;50.392;7.482;2022-09-06T12:51:25;100558.13;;;33.45;30.97
4981;BME280;2507;50.392;7.482;2022-09-06T12:53:58;100550.38;;;33.32;30.87
4981;BME280;2507;50.392;7.482;2022-09-06T12:56:25;100550.00;;;33.50;31.73
4981;BME280;2507;50.392;7.482;2022-09-06T12:58:51;100557.34;;;33.81;30.76
4981;BME280;2507;50.392;7.482;2022-09-06T13:01:28;100567.78;;;33.94;30.58
4981;BME280;2507;50.392;7.482;2022-09-06T13:04:04;100569.22;;;34.02;30.26
4981;BME280;2507;50.392;7.482;2022-09-06T13:06:35;100567.63;;;34.06;30.18
4981;BME280;2507;50.392;7.482;2022-09-06T13:09:03;100600.38;;;34.16;30.16
4981;BME280;2507;50.392;7.482;2022-09-06T13:11:35;100623.88;;;33.90;32.09
4981;BME280;2507;50.392;7.482;2022-09-06T13:14:08;100647.97;;;31.59;37.12
4981;BME280;2507;50.392;7.482;2022-09-06T13:16:43;100654.75;;;30.54;40.11
4981;BME280;2507;50.392;7.482;2022-09-06T13:19:39;100648.88;;;28.56;41.90
4981;BME280;2507;50.392;7.482;2022-09-06T13:22:07;100614.38;;;28.51;41.45
4981;BME280;2507;50.392;7.482;2022-09-06T13:32:26;100592.56;;;30.12;39.30
4981;BME280;2507;50.392;7.482;2022-09-06T13:34:52;100581.84;;;30.80;37.92
4981;BME280;2507;50.392;7.482;2022-09-06T13:37:23;100585.50;;;31.42;33.34
4981;BME280;2507;50.392;7.482;2022-09-06T13:39:49;100586.19;;;31.82;31.99
4981;BME280;2507;50.392;7.482;2022-09-06T13:42:27;100590.56;;;31.67;31.33
4981;BME280;2507;50.392;7.482;2022-09-06T13:44:52;100585.25;;;31.27;32.77
4981;BME280;2507;50.392;7.482;2022-09-06T13:47:18;100575.59;;;31.64;33.30
4981;BME280;2507;50.392;7.482;2022-09-06T13:49:43;100566.06;;;31.34;32.73
4981;BME280;2507;50.392;7.482;2022-09-06T13:52:09;100568.00;;;31.05;32.59
4981;BME280;2507;50.392;7.482;2022-09-06T13:54:34;100565.56;;;30.52;32.73
4981;BME280;2507;50.392;7.482;2022-09-06T13:57:04;100560.41;;;30.79;32.51
4981;BME280;2507;50.392;7.482;2022-09-06T13:59:29;100564.91;;;31.58;31.76
4981;BME280;2507;50.392;7.482;2022-09-06T14:02:05;100551.00;;;31.87;30.87
4981;BME280;2507;50.392;7.482;2022-09-06T14:04:32;100550.81;;;31.77;30.20
4981;BME280;2507;50.392;7.482;2022-09-06T14:06:58;100544.75;;;32.25;30.06
4981;BME280;2507;50.392;7.482;2022-09-06T14:09:24;100546.00;;;32.56;29.17
4981;BME280;2507;50.392;7.482;2022-09-06T14:11:49;100535.94;;;32.56;29.46
4981;BME280;2507;50.392;7.482;2022-09-06T14:14:15;100531.94;;;32.85;28.89
4981;BME280;2507;50.392;7.482;2022-09-06T14:16:41;100530.84;;;32.86;29.98
4981;BME280;2507;50.392;7.482;2022-09-06T14:19:07;100521.81;;;32.81;29.79
4981;BME280;2507;50.392;7.482;2022-09-06T14:21:32;100525.50;;;32.70;30.95
4981;BME280;2507;50.392;7.482;2022-09-06T14:23:57;100519.44;;;32.89;30.32
4981;BME280;2507;50.392;7.482;2022-09-06T14:26:23;100511.38;;;32.94;30.40
4981;BME280;2507;50.392;7.482;2022-09-06T14:28:49;100518.41;;;32.69;30.84
4981;BME280;2507;50.392;7.482;2022-09-06T14:31:17;100512.41;;;32.24;31.01
4981;BME280;2507;50.392;7.482;2022-09-06T14:33:43;100514.84;;;32.03;31.65
4981;BME280;2507;50.392;7.482;2022-09-06T14:36:12;100498.47;;;32.58;31.27
4981;BME280;2507;50.392;7.482;2022-09-06T14:38:38;100503.75;;;32.48;31.75
4981;BME280;2507;50.392;7.482;2022-09-06T14:41:05;100501.41;;;32.35;32.01
4981;BME280;2507;50.392;7.482;2022-09-06T14:43:31;100496.34;;;31.18;37.73
4981;BME280;2507;50.392;7.482;2022-09-06T14:46:13;100496.13;;;30.35;39.26
4981;BME280;2507;50.392;7.482;2022-09-06T14:48:41;100493.44;;;29.65;40.38
4981;BME280;2507;50.392;7.482;2022-09-06T14:51:08;100486.81;;;29.27;41.53
4981;BME280;2507;50.392;7.482;2022-09-06T14:53:37;100483.28;;;29.14;42.62
4981;BME280;2507;50.392;7.482;2022-09-06T14:56:04;100490.56;;;29.14;43.11
4981;BME280;2507;50.392;7.482;2022-09-06T14:58:30;100491.06;;;29.04;43.53